サンパウロ/グアルーリョス の空港の天気 - METARとTAF

グアルーリョス国際空港 (サンパウロ) ( SBGR / GRU ) - ブラジル サンパウロ州サンパウロ市
飛行場実況気象(Metar)
観測時間10/19 15:00 BRT (10/19 18:00 UTC)
風向・風速南 2m/s
視程10km以上
天気現象
全天の8割程度の雲 雲底高度 270m
全天を覆う雲 雲底高度 610m
気温20℃
湿度100%
気圧1016hPa
METARSBGR 191800Z 18004KT 9999 BKN009 OVC020 20/20 Q1016
過去の天気等 Google飛行場航空写真 Wunderground天気予報

過去48時間のMETAR

飛行場予報(TAF)
発表時間: 10/19 13:00 BRT (10/19 16:00 UTC)
予報対象時間: 19日15時 BRT ~ 20日21時 BRT
風向・風速南 5m/s
視程10km以上
全天の8割程度の雲 雲底高度 520m
19日15時 BRT から 確率 40% で
視程6000m
天気現象霧雨
全天の8割程度の雲 雲底高度 340m
19日19時 BRT ~ 19日21時 BRT に徐々に
全天の8割程度の雲 雲底高度 300m
20日1時 BRT ~ 20日3時 BRT に徐々に
風向・風速南南東 4m/s
20日3時 BRT から 確率 30% で
視程6000m
天気現象霧雨
全天の8割程度の雲 雲底高度 210m
20日7時 BRT ~ 20日9時 BRT に徐々に
風向・風速南東 5m/s
全天の8割程度の雲 雲底高度 400m
20日9時 BRT ~ 20日11時 BRT に徐々に
全天の8割程度の雲 雲底高度 490m
20日12時 BRT ~ 20日14時 BRT に徐々に
全天の8割程度の雲 雲底高度 640m
20日18時 BRT から 確率 30% で
風向・風速東南東 5m/s
視程10km以上
なし
TAF SBGR 191600Z 1918/2024 17009KT 9999 BKN017 TX17/2016Z TN14/2024Z
PROB40 1918/1922 6000 DZ BKN011
BECMG 1922/1924 BKN010
BECMG 2004/2006 15008KT
PROB30 2006/2010 6000 DZ BKN007
BECMG 2010/2012 14010KT BKN013
BECMG 2012/2014 BKN016
BECMG 2015/2017 BKN021
PROB30 2021/2024 12010KT CAVOK RMK PGE